createdAt,value
2016-10-16T00:00:08.214Z,999
2016-10-16T00:00:28.793Z,999
2016-10-16T00:00:49.390Z,999
2016-10-16T00:01:09.969Z,999
2016-10-16T00:01:30.547Z,999
2016-10-16T00:01:51.118Z,999
2016-10-16T00:02:11.690Z,999
2016-10-16T00:02:32.272Z,999
2016-10-16T00:02:52.935Z,999
2016-10-16T00:03:13.526Z,999
2016-10-16T00:03:34.130Z,999
2016-10-16T00:03:54.710Z,999
2016-10-16T00:04:15.296Z,999
2016-10-16T00:04:35.894Z,999.1
2016-10-16T00:04:56.485Z,999.1
2016-10-16T00:05:17.061Z,999.1
2016-10-16T00:05:37.640Z,999
2016-10-16T00:05:58.225Z,999
2016-10-16T00:06:18.807Z,999
2016-10-16T00:06:39.398Z,999
2016-10-16T00:07:00.004Z,999
2016-10-16T00:07:20.589Z,999
2016-10-16T00:07:41.163Z,999
2016-10-16T00:08:01.780Z,999
2016-10-16T00:08:22.371Z,999
2016-10-16T00:08:42.951Z,999
2016-10-16T00:09:03.539Z,999.1
2016-10-16T00:09:24.094Z,999
2016-10-16T00:09:44.661Z,999
2016-10-16T00:10:05.253Z,999
2016-10-16T00:10:25.865Z,999
2016-10-16T00:10:46.441Z,999
2016-10-16T00:11:07.009Z,999
2016-10-16T00:11:27.610Z,999
2016-10-16T00:11:48.179Z,999
2016-10-16T00:12:08.752Z,999
2016-10-16T00:12:29.335Z,999
2016-10-16T00:12:49.908Z,999
2016-10-16T00:13:10.487Z,999
2016-10-16T00:13:31.070Z,999
2016-10-16T00:13:51.676Z,999
2016-10-16T00:14:12.262Z,999
2016-10-16T00:14:32.841Z,999
2016-10-16T00:14:53.426Z,999
2016-10-16T00:15:14.007Z,999
2016-10-16T00:15:34.589Z,999
2016-10-16T00:15:55.170Z,999
2016-10-16T00:16:15.745Z,999
2016-10-16T00:16:36.325Z,999.1
2016-10-16T00:16:56.903Z,999
2016-10-16T00:17:17.509Z,999
2016-10-16T00:17:38.101Z,999
2016-10-16T00:17:58.679Z,999
2016-10-16T00:18:19.261Z,999
2016-10-16T00:18:39.856Z,999.1
2016-10-16T00:19:00.429Z,999
2016-10-16T00:19:21.005Z,999
2016-10-16T00:19:41.596Z,999.1
2016-10-16T00:20:02.164Z,999
2016-10-16T00:20:22.752Z,999
2016-10-16T00:20:43.349Z,999.1
2016-10-16T00:21:03.931Z,999.1
2016-10-16T00:21:24.506Z,999
2016-10-16T00:21:45.083Z,999
2016-10-16T00:22:05.645Z,999
2016-10-16T00:22:26.245Z,999
2016-10-16T00:22:46.831Z,999
2016-10-16T00:23:07.436Z,999.1
2016-10-16T00:23:28.027Z,999
2016-10-16T00:23:48.588Z,999
2016-10-16T00:24:09.190Z,999.1
2016-10-16T00:24:29.764Z,999.1
2016-10-16T00:24:50.372Z,999
2016-10-16T00:25:10.942Z,999.1
2016-10-16T00:25:31.513Z,999.1
2016-10-16T00:25:52.105Z,999.1
2016-10-16T00:26:12.680Z,999
2016-10-16T00:26:33.260Z,999
2016-10-16T00:26:53.849Z,999.1
2016-10-16T00:27:14.436Z,999.1
2016-10-16T00:27:35.007Z,999.1
2016-10-16T00:27:55.586Z,999.1
2016-10-16T00:28:16.174Z,999.1
2016-10-16T00:28:36.773Z,999.1
2016-10-16T00:28:57.341Z,999.1
2016-10-16T00:29:17.912Z,999.1
2016-10-16T00:29:38.495Z,999.1
2016-10-16T00:29:59.067Z,999.1
2016-10-16T00:30:19.654Z,999.1
2016-10-16T00:30:40.237Z,999.1
2016-10-16T00:31:00.824Z,999.2
2016-10-16T00:31:21.396Z,999.2
2016-10-16T00:31:41.971Z,999.2
2016-10-16T00:32:02.573Z,999.2
2016-10-16T00:32:23.165Z,999.2
2016-10-16T00:32:43.743Z,999.1
2016-10-16T00:33:04.324Z,999.2
2016-10-16T00:33:24.937Z,999.2
2016-10-16T00:33:45.509Z,999.1
2016-10-16T00:34:06.082Z,999.1
2016-10-16T00:34:26.671Z,999.1
2016-10-16T00:34:47.250Z,999.2
2016-10-16T00:35:07.841Z,999.2
2016-10-16T00:35:28.424Z,999.2
2016-10-16T00:35:48.996Z,999.2
2016-10-16T00:36:09.589Z,999.2
2016-10-16T00:36:30.179Z,999.2
2016-10-16T00:36:50.761Z,999.2
2016-10-16T00:37:11.346Z,999.1
2016-10-16T00:37:31.937Z,999.1
2016-10-16T00:37:52.513Z,999.1
2016-10-16T00:38:13.097Z,999.1
2016-10-16T00:38:33.697Z,999.2
2016-10-16T00:38:54.303Z,999.1
2016-10-16T00:39:14.886Z,999.2
2016-10-16T00:39:35.464Z,999.2
2016-10-16T00:39:56.039Z,999.2
2016-10-16T00:40:16.624Z,999.2
2016-10-16T00:40:37.216Z,999.2
2016-10-16T00:40:57.786Z,999.2
2016-10-16T00:41:18.388Z,999.2
2016-10-16T00:41:38.958Z,999.2
2016-10-16T00:41:59.540Z,999.2
2016-10-16T00:42:20.108Z,999.2
2016-10-16T00:42:40.680Z,999.2
2016-10-16T00:43:01.271Z,999.2
2016-10-16T00:43:21.861Z,999.2
2016-10-16T00:43:42.441Z,999.2
2016-10-16T00:44:03.017Z,999.2
2016-10-16T00:44:23.627Z,999.2
2016-10-16T00:44:44.226Z,999.2
2016-10-16T00:45:04.808Z,999.2
2016-10-16T00:45:25.380Z,999.2
2016-10-16T00:45:45.943Z,999.2
2016-10-16T00:46:06.521Z,999.2
2016-10-16T00:46:27.102Z,999.2
2016-10-16T00:46:47.692Z,999.2
2016-10-16T00:47:08.274Z,999.2
2016-10-16T00:47:28.878Z,999.2
2016-10-16T00:47:49.453Z,999.2
2016-10-16T00:48:10.058Z,999.2
2016-10-16T00:48:30.668Z,999.2
2016-10-16T00:48:51.255Z,999.2
2016-10-16T00:49:11.828Z,999.3
2016-10-16T00:49:32.416Z,999.2
2016-10-16T00:49:53.001Z,999.2
2016-10-16T00:50:13.588Z,999.3
2016-10-16T00:50:34.165Z,999.3
2016-10-16T00:50:54.737Z,999.3
2016-10-16T00:51:15.311Z,999.3
2016-10-16T00:51:35.908Z,999.3
2016-10-16T00:51:56.496Z,999.2
2016-10-16T00:52:17.084Z,999.3
2016-10-16T00:52:37.661Z,999.3
2016-10-16T00:52:58.230Z,999.3
2016-10-16T00:53:18.809Z,999.3
2016-10-16T00:53:39.415Z,999.3
2016-10-16T00:53:59.994Z,999.2
2016-10-16T00:54:20.567Z,999.3
2016-10-16T00:54:41.142Z,999.2
2016-10-16T00:55:01.739Z,999.3
2016-10-16T00:55:22.317Z,999.2
2016-10-16T00:55:42.910Z,999.3
2016-10-16T00:56:03.506Z,999.3
2016-10-16T00:56:24.088Z,999.3
2016-10-16T00:56:44.652Z,999.2
2016-10-16T00:57:05.241Z,999.3
2016-10-16T00:57:25.834Z,999.2
2016-10-16T00:57:46.429Z,999.2
2016-10-16T00:58:07.004Z,999.3
2016-10-16T00:58:27.574Z,999.2
2016-10-16T00:58:48.170Z,999.2
2016-10-16T00:59:08.771Z,999.2
2016-10-16T00:59:29.374Z,999.2
2016-10-16T00:59:49.962Z,999.2
2016-10-16T01:00:10.548Z,999.2
2016-10-16T01:00:31.132Z,999.2
2016-10-16T01:00:51.721Z,999.2
2016-10-16T01:01:12.321Z,999.3
2016-10-16T01:01:32.906Z,999.2
2016-10-16T01:01:53.473Z,999.2
2016-10-16T01:02:14.048Z,999.2
2016-10-16T01:02:34.633Z,999.3
2016-10-16T01:02:55.219Z,999.2
2016-10-16T01:03:15.812Z,999.3
2016-10-16T01:03:36.387Z,999.3
2016-10-16T01:03:56.972Z,999.3
2016-10-16T01:04:17.557Z,999.3
2016-10-16T01:04:38.153Z,999.3
2016-10-16T01:04:58.741Z,999.3
2016-10-16T01:05:19.314Z,999.3
2016-10-16T01:05:39.881Z,999.3
2016-10-16T01:06:00.466Z,999.3
2016-10-16T01:06:21.056Z,999.3
2016-10-16T01:06:41.646Z,999.3
2016-10-16T01:07:02.221Z,999.3
2016-10-16T01:07:59.576Z,999.3
2016-10-16T01:08:20.159Z,999.3
2016-10-16T01:08:40.741Z,999.3
2016-10-16T01:09:01.399Z,999.3
2016-10-16T01:09:21.978Z,999.3
2016-10-16T01:09:42.571Z,999.3
2016-10-16T01:10:03.169Z,999.3
2016-10-16T01:10:23.768Z,999.3
2016-10-16T01:10:44.344Z,999.3
2016-10-16T01:11:04.915Z,999.4
2016-10-16T01:11:25.513Z,999.3
2016-10-16T01:11:46.084Z,999.3
2016-10-16T01:12:06.678Z,999.3
2016-10-16T01:12:27.274Z,999.3
2016-10-16T01:12:47.837Z,999.3
2016-10-16T01:13:08.435Z,999.4
2016-10-16T01:13:29.026Z,999.3
2016-10-16T01:13:49.610Z,999.3
2016-10-16T01:14:10.187Z,999.4
2016-10-16T01:14:30.772Z,999.3
2016-10-16T01:14:51.330Z,999.3
2016-10-16T01:15:11.919Z,999.3
2016-10-16T01:15:32.536Z,999.3
2016-10-16T01:15:53.105Z,999.3
2016-10-16T01:16:13.688Z,999.4
2016-10-16T01:16:34.273Z,999.3
2016-10-16T01:16:54.843Z,999.4
2016-10-16T01:17:15.426Z,999.4
2016-10-16T01:17:36.006Z,999.3
2016-10-16T01:17:56.577Z,999.3
2016-10-16T01:18:17.159Z,999.3
2016-10-16T01:18:37.756Z,999.4
2016-10-16T01:18:58.344Z,999.3
2016-10-16T01:19:18.939Z,999.3
2016-10-16T01:19:39.510Z,999.4
2016-10-16T01:20:00.096Z,999.3
2016-10-16T01:20:20.684Z,999.4
2016-10-16T01:20:41.274Z,999.4
2016-10-16T01:21:01.860Z,999.3
2016-10-16T01:21:22.457Z,999.3
2016-10-16T01:21:43.018Z,999.4
2016-10-16T01:22:03.602Z,999.4
2016-10-16T01:22:24.193Z,999.4
2016-10-16T01:22:44.785Z,999.4
2016-10-16T01:23:05.383Z,999.3
2016-10-16T01:23:25.958Z,999.4
2016-10-16T01:23:46.537Z,999.4
2016-10-16T01:24:07.118Z,999.4
2016-10-16T01:24:27.714Z,999.3
2016-10-16T01:24:48.287Z,999.4
2016-10-16T01:25:08.881Z,999.4
2016-10-16T01:25:29.472Z,999.4
2016-10-16T01:25:50.056Z,999.4
2016-10-16T01:26:10.656Z,999.4
2016-10-16T01:26:31.249Z,999.4
2016-10-16T01:26:51.885Z,999.4
2016-10-16T01:27:12.470Z,999.5
2016-10-16T01:27:33.044Z,999.4
2016-10-16T01:27:53.626Z,999.4
2016-10-16T01:28:14.227Z,999.5
2016-10-16T01:28:34.806Z,999.5
2016-10-16T01:28:55.381Z,999.4
2016-10-16T01:29:16.010Z,999.5
2016-10-16T01:29:36.607Z,999.4
2016-10-16T01:29:57.198Z,999.4
2016-10-16T01:30:17.783Z,999.4
2016-10-16T01:30:38.361Z,999.5
2016-10-16T01:30:58.928Z,999.4
2016-10-16T01:31:19.504Z,999.5
2016-10-16T01:31:40.089Z,999.4
2016-10-16T01:32:00.679Z,999.4
2016-10-16T01:32:21.263Z,999.4
2016-10-16T01:32:41.851Z,999.5
2016-10-16T01:33:02.440Z,999.4
2016-10-16T01:33:23.021Z,999.4
2016-10-16T01:33:43.637Z,999.4
2016-10-16T01:34:04.213Z,999.4
2016-10-16T01:34:24.779Z,999.4
2016-10-16T01:34:45.360Z,999.4
2016-10-16T01:35:05.948Z,999.4
2016-10-16T01:35:26.523Z,999.4
2016-10-16T01:35:47.105Z,999.4
2016-10-16T01:36:07.656Z,999.5
2016-10-16T01:36:28.252Z,999.4
2016-10-16T01:36:48.849Z,999.5
2016-10-16T01:37:09.431Z,999.4
2016-10-16T01:37:30.019Z,999.4
2016-10-16T01:37:50.639Z,999.4
2016-10-16T01:38:11.225Z,999.5
2016-10-16T01:38:31.804Z,999.5
2016-10-16T01:38:52.418Z,999.5
2016-10-16T01:39:13.026Z,999.4
2016-10-16T01:39:33.590Z,999.4
2016-10-16T01:39:54.173Z,999.4
2016-10-16T01:40:14.752Z,999.5
2016-10-16T01:40:35.333Z,999.5
2016-10-16T01:40:55.941Z,999.5
2016-10-16T01:41:16.501Z,999.5
2016-10-16T01:41:37.079Z,999.5
2016-10-16T01:41:57.659Z,999.5
2016-10-16T01:42:18.240Z,999.5
2016-10-16T01:42:38.820Z,999.5
2016-10-16T01:42:59.394Z,999.5
2016-10-16T01:43:19.972Z,999.5
2016-10-16T01:43:40.567Z,999.5
2016-10-16T01:44:01.148Z,999.5
2016-10-16T01:44:21.743Z,999.5
2016-10-16T01:44:42.359Z,999.5
2016-10-16T01:45:02.935Z,999.5
2016-10-16T01:45:23.528Z,999.5
2016-10-16T01:45:44.106Z,999.5
2016-10-16T01:46:04.694Z,999.5
2016-10-16T01:46:25.295Z,999.5
2016-10-16T01:46:45.869Z,999.5
2016-10-16T01:47:06.449Z,999.5
2016-10-16T01:47:27.028Z,999.5
2016-10-16T01:47:47.609Z,999.5
2016-10-16T01:48:08.196Z,999.5
2016-10-16T01:48:28.763Z,999.5
2016-10-16T01:48:49.342Z,999.5
2016-10-16T01:49:09.959Z,999.5
2016-10-16T01:49:30.543Z,999.6
2016-10-16T01:49:51.119Z,999.5
2016-10-16T01:50:11.701Z,999.5
2016-10-16T01:50:32.264Z,999.6
2016-10-16T01:50:52.847Z,999.5
2016-10-16T01:51:13.419Z,999.5
2016-10-16T01:51:33.991Z,999.6
2016-10-16T01:51:54.559Z,999.5
2016-10-16T01:52:15.135Z,999.5
2016-10-16T01:52:35.741Z,999.5
2016-10-16T01:52:56.323Z,999.5
2016-10-16T01:53:16.901Z,999.5
2016-10-16T01:53:37.484Z,999.5
2016-10-16T01:53:58.061Z,999.5
2016-10-16T01:54:18.630Z,999.5
2016-10-16T01:54:39.207Z,999.5
2016-10-16T01:54:59.779Z,999.5
2016-10-16T01:55:20.357Z,999.5
2016-10-16T01:55:40.935Z,999.5
2016-10-16T01:56:01.501Z,999.5
2016-10-16T01:56:22.085Z,999.5
2016-10-16T01:56:42.653Z,999.5
2016-10-16T01:57:03.251Z,999.5
2016-10-16T01:57:23.822Z,999.5
2016-10-16T01:57:44.389Z,999.5
2016-10-16T01:58:04.984Z,999.5
2016-10-16T01:58:25.569Z,999.5
2016-10-16T01:58:46.161Z,999.5
2016-10-16T01:59:06.744Z,999.5
2016-10-16T01:59:27.307Z,999.5
2016-10-16T01:59:47.883Z,999.5
2016-10-16T02:00:08.454Z,999.5
2016-10-16T02:00:29.044Z,999.5
2016-10-16T02:00:49.643Z,999.5
2016-10-16T02:01:10.210Z,999.5
2016-10-16T02:01:30.785Z,999.5
2016-10-16T02:01:51.385Z,999.5
2016-10-16T02:02:11.965Z,999.5
2016-10-16T02:02:32.570Z,999.5
2016-10-16T02:02:53.144Z,999.5
2016-10-16T02:03:13.722Z,999.5
2016-10-16T02:03:34.305Z,999.5
2016-10-16T02:03:54.871Z,999.4
2016-10-16T02:04:15.448Z,999.5
2016-10-16T02:04:36.037Z,999.5
2016-10-16T02:04:56.651Z,999.5
2016-10-16T02:05:17.257Z,999.5
2016-10-16T02:05:37.834Z,999.5
2016-10-16T02:05:58.441Z,999.4
2016-10-16T02:06:19.985Z,999.5
2016-10-16T02:06:40.566Z,999.5
2016-10-16T02:07:01.149Z,999.5
2016-10-16T02:07:21.737Z,999.4
2016-10-16T02:07:42.335Z,999.5
2016-10-16T02:08:02.964Z,999.4
2016-10-16T02:08:23.551Z,999.5
2016-10-16T02:08:44.132Z,999.5
2016-10-16T02:09:04.719Z,999.5
2016-10-16T02:09:25.304Z,999.5
2016-10-16T02:09:45.888Z,999.5
2016-10-16T02:10:06.467Z,999.5
2016-10-16T02:10:27.033Z,999.5
2016-10-16T02:10:47.604Z,999.5
2016-10-16T02:11:08.188Z,999.5
2016-10-16T02:11:28.782Z,999.5
2016-10-16T02:11:49.376Z,999.5
2016-10-16T02:12:09.949Z,999.5
2016-10-16T02:12:30.528Z,999.5
2016-10-16T02:12:51.114Z,999.5
2016-10-16T02:13:11.713Z,999.5
2016-10-16T02:13:32.296Z,999.5
2016-10-16T02:13:52.866Z,999.5
2016-10-16T02:14:13.461Z,999.5
2016-10-16T02:14:34.044Z,999.5
2016-10-16T02:14:54.646Z,999.5
2016-10-16T02:15:15.232Z,999.5
2016-10-16T02:15:35.811Z,999.5
2016-10-16T02:15:56.391Z,999.5
2016-10-16T02:16:17.007Z,999.5
2016-10-16T02:16:37.604Z,999.4
2016-10-16T02:16:58.193Z,999.4
2016-10-16T02:17:18.774Z,999.5
2016-10-16T02:17:39.336Z,999.5
2016-10-16T02:17:59.912Z,999.5
2016-10-16T02:18:20.494Z,999.5
2016-10-16T02:18:41.183Z,999.5
2016-10-16T02:19:01.777Z,999.5
2016-10-16T02:19:22.355Z,999.5
2016-10-16T02:19:42.932Z,999.5
2016-10-16T02:20:03.516Z,999.5
2016-10-16T02:20:24.123Z,999.5
2016-10-16T02:20:44.726Z,999.6
2016-10-16T02:21:05.294Z,999.5
2016-10-16T02:21:25.867Z,999.5
2016-10-16T02:21:46.461Z,999.5
2016-10-16T02:22:07.056Z,999.5
2016-10-16T02:22:27.634Z,999.5
2016-10-16T02:22:48.225Z,999.5
2016-10-16T02:23:08.797Z,999.5
2016-10-16T02:23:29.390Z,999.5
2016-10-16T02:23:49.957Z,999.5
2016-10-16T02:24:10.531Z,999.5
2016-10-16T02:24:31.117Z,999.5
2016-10-16T02:24:51.690Z,999.5
2016-10-16T02:25:12.281Z,999.5
2016-10-16T02:25:33.117Z,999.6
2016-10-16T02:25:53.703Z,999.5
2016-10-16T02:26:14.307Z,999.5
2016-10-16T02:26:34.902Z,999.6
2016-10-16T02:26:55.490Z,999.5
2016-10-16T02:27:16.060Z,999.5
2016-10-16T02:27:36.660Z,999.5
2016-10-16T02:27:57.249Z,999.6
2016-10-16T02:28:17.824Z,999.5
2016-10-16T02:28:38.404Z,999.6
2016-10-16T02:28:58.997Z,999.5
2016-10-16T02:29:19.585Z,999.5
2016-10-16T02:29:40.171Z,999.5
2016-10-16T02:30:00.728Z,999.5
2016-10-16T02:30:21.306Z,999.5
2016-10-16T02:30:41.900Z,999.6
2016-10-16T02:31:02.474Z,999.6
2016-10-16T02:31:23.064Z,999.6
2016-10-16T02:31:43.624Z,999.5
2016-10-16T02:32:04.216Z,999.5
2016-10-16T02:32:24.818Z,999.5
2016-10-16T02:32:45.411Z,999.6
2016-10-16T02:33:05.990Z,999.6
2016-10-16T02:33:26.561Z,999.5
2016-10-16T02:33:47.193Z,999.5
2016-10-16T02:34:07.772Z,999.5
2016-10-16T02:34:28.357Z,999.5
2016-10-16T02:34:48.956Z,999.5
2016-10-16T02:35:09.518Z,999.5
2016-10-16T02:35:30.117Z,999.5
2016-10-16T02:35:50.709Z,999.5
2016-10-16T02:36:11.292Z,999.5
2016-10-16T02:36:31.874Z,999.5
2016-10-16T02:36:52.457Z,999.5
2016-10-16T02:37:13.034Z,999.5
2016-10-16T02:37:33.619Z,999.5
2016-10-16T02:37:54.235Z,999.5
2016-10-16T02:38:14.866Z,999.5
2016-10-16T02:38:35.434Z,999.5
2016-10-16T02:38:56.000Z,999.5
2016-10-16T02:39:16.579Z,999.5
2016-10-16T02:39:37.170Z,999.5
2016-10-16T02:39:57.742Z,999.5
2016-10-16T02:40:18.308Z,999.5
2016-10-16T02:40:38.891Z,999.5
2016-10-16T02:40:59.462Z,999.5
2016-10-16T02:41:20.069Z,999.5
2016-10-16T02:41:40.661Z,999.5
2016-10-16T02:42:01.259Z,999.5
2016-10-16T02:42:21.834Z,999.5
2016-10-16T02:42:42.417Z,999.5
2016-10-16T02:43:03.019Z,999.5
2016-10-16T02:43:23.600Z,999.5
2016-10-16T02:43:44.176Z,999.5
2016-10-16T02:44:04.757Z,999.5
2016-10-16T02:44:25.352Z,999.5
2016-10-16T02:44:45.947Z,999.5
2016-10-16T02:45:06.538Z,999.5
2016-10-16T02:45:27.117Z,999.5
2016-10-16T02:45:47.691Z,999.5
2016-10-16T02:46:08.256Z,999.5
2016-10-16T02:46:28.826Z,999.5
2016-10-16T02:46:49.417Z,999.5
2016-10-16T02:47:10.006Z,999.5
2016-10-16T02:47:30.572Z,999.5
2016-10-16T02:47:51.147Z,999.6
2016-10-16T02:48:11.740Z,999.5
2016-10-16T02:48:32.314Z,999.5
2016-10-16T02:48:52.908Z,999.5
2016-10-16T02:49:13.492Z,999.5
2016-10-16T02:49:34.085Z,999.6
2016-10-16T02:49:54.685Z,999.6
2016-10-16T02:50:15.279Z,999.6
2016-10-16T02:50:35.867Z,999.5
2016-10-16T02:50:56.470Z,999.5
2016-10-16T02:51:17.047Z,999.5
2016-10-16T02:51:37.636Z,999.6
2016-10-16T02:51:58.210Z,999.6
2016-10-16T02:52:18.787Z,999.5
2016-10-16T02:52:39.347Z,999.6
2016-10-16T02:52:59.908Z,999.6
2016-10-16T02:53:20.494Z,999.6
2016-10-16T02:53:41.096Z,999.6
2016-10-16T02:54:01.689Z,999.6
2016-10-16T02:54:22.277Z,999.6
2016-10-16T02:54:42.845Z,999.6
2016-10-16T02:55:03.418Z,999.6
2016-10-16T02:55:24.003Z,999.6
2016-10-16T02:55:44.591Z,999.6
2016-10-16T02:56:05.165Z,999.6
2016-10-16T02:56:25.734Z,999.6
2016-10-16T02:56:46.309Z,999.6
2016-10-16T02:57:06.890Z,999.6
2016-10-16T02:57:27.468Z,999.6
2016-10-16T02:57:48.058Z,999.6
2016-10-16T02:58:08.632Z,999.7
2016-10-16T02:58:29.211Z,999.6
2016-10-16T02:58:49.804Z,999.6
2016-10-16T02:59:10.388Z,999.6
2016-10-16T02:59:30.971Z,999.6
2016-10-16T02:59:51.582Z,999.6
2016-10-16T03:00:12.141Z,999.6
2016-10-16T03:00:32.707Z,999.6
2016-10-16T03:00:53.298Z,999.7
2016-10-16T03:01:13.919Z,999.6
2016-10-16T03:01:34.505Z,999.7
2016-10-16T03:01:55.088Z,999.7
2016-10-16T03:02:15.657Z,999.7
2016-10-16T03:02:36.246Z,999.7
2016-10-16T03:02:56.851Z,999.6
2016-10-16T03:03:17.432Z,999.6
2016-10-16T03:03:38.106Z,999.7
2016-10-16T03:03:58.682Z,999.7
2016-10-16T03:04:19.286Z,999.7
2016-10-16T03:04:39.891Z,999.7
2016-10-16T03:05:00.482Z,999.7
2016-10-16T03:05:21.077Z,999.7
2016-10-16T03:05:41.649Z,999.7
2016-10-16T03:06:02.229Z,999.7
2016-10-16T03:06:22.823Z,999.7
2016-10-16T03:06:43.394Z,999.7
2016-10-16T03:07:03.986Z,999.7
2016-10-16T03:07:24.556Z,999.7
2016-10-16T03:07:45.143Z,999.7
2016-10-16T03:08:05.735Z,999.7
2016-10-16T03:08:26.333Z,999.7
2016-10-16T03:08:46.930Z,999.7
2016-10-16T03:09:07.501Z,999.7
2016-10-16T03:09:28.069Z,999.7
2016-10-16T03:09:48.660Z,999.7
2016-10-16T03:10:09.238Z,999.7
2016-10-16T03:10:29.822Z,999.8
2016-10-16T03:10:50.409Z,999.7
2016-10-16T03:11:10.981Z,999.7
2016-10-16T03:11:31.567Z,999.7
2016-10-16T03:11:52.157Z,999.7
2016-10-16T03:12:12.753Z,999.7
2016-10-16T03:12:33.350Z,999.7
2016-10-16T03:12:53.931Z,999.7
2016-10-16T03:13:14.509Z,999.8
2016-10-16T03:13:35.084Z,999.8
2016-10-16T03:13:55.689Z,999.8
2016-10-16T03:14:16.264Z,999.7
2016-10-16T03:14:36.907Z,999.8
2016-10-16T03:14:57.469Z,999.8
2016-10-16T03:15:18.055Z,999.8
2016-10-16T03:15:38.634Z,999.8
2016-10-16T03:15:59.209Z,999.7
2016-10-16T03:16:19.794Z,999.8
2016-10-16T03:16:40.372Z,999.8
2016-10-16T03:17:00.935Z,999.7
2016-10-16T03:17:21.516Z,999.8
2016-10-16T03:17:42.091Z,999.8
2016-10-16T03:18:02.677Z,999.8
2016-10-16T03:18:23.266Z,999.8
2016-10-16T03:18:43.833Z,999.7
2016-10-16T03:19:04.416Z,999.8
2016-10-16T03:19:24.988Z,999.8
2016-10-16T03:19:45.577Z,999.8
2016-10-16T03:20:06.160Z,999.8
2016-10-16T03:20:26.757Z,999.8
2016-10-16T03:20:47.350Z,999.8
2016-10-16T03:21:07.930Z,999.8
2016-10-16T03:21:28.519Z,999.8
2016-10-16T03:21:49.105Z,999.8
2016-10-16T03:22:09.696Z,999.8
2016-10-16T03:22:30.276Z,999.8
2016-10-16T03:22:50.856Z,999.8
2016-10-16T03:23:11.462Z,999.8
2016-10-16T03:23:32.063Z,999.8
2016-10-16T03:23:52.640Z,999.9
2016-10-16T03:24:13.226Z,999.8
2016-10-16T03:24:33.816Z,999.9
2016-10-16T03:24:54.397Z,999.8
2016-10-16T03:25:14.986Z,999.8
2016-10-16T03:25:35.571Z,999.8
2016-10-16T03:25:56.152Z,999.9
2016-10-16T03:26:16.735Z,999.9
2016-10-16T03:26:37.314Z,999.9
2016-10-16T03:26:57.929Z,999.8
2016-10-16T03:27:18.510Z,999.8
2016-10-16T03:27:39.082Z,999.8
2016-10-16T03:27:59.659Z,999.9
2016-10-16T03:28:20.242Z,999.9
2016-10-16T03:28:40.843Z,999.9
2016-10-16T03:29:01.418Z,999.9
2016-10-16T03:29:22.004Z,999.9
2016-10-16T03:29:42.598Z,999.9
2016-10-16T03:30:03.172Z,999.9
2016-10-16T03:30:23.775Z,999.9
2016-10-16T03:30:44.366Z,999.9
2016-10-16T03:31:04.970Z,999.9
2016-10-16T03:31:25.552Z,999.9
2016-10-16T03:31:46.119Z,999.9
2016-10-16T03:32:06.706Z,999.9
2016-10-16T03:32:27.308Z,999.9
2016-10-16T03:32:47.923Z,999.9
2016-10-16T03:33:08.491Z,999.9
2016-10-16T03:33:29.071Z,999.9
2016-10-16T03:33:49.651Z,999.9
2016-10-16T03:34:10.229Z,999.9
2016-10-16T03:34:30.826Z,999.9
2016-10-16T03:34:51.399Z,999.9
2016-10-16T03:35:11.996Z,999.9
2016-10-16T03:35:32.571Z,999.9
2016-10-16T03:35:53.151Z,999.9
2016-10-16T03:36:13.727Z,999.9
2016-10-16T03:36:34.281Z,999.9
2016-10-16T03:36:54.864Z,999.9
2016-10-16T03:37:15.451Z,999.9
2016-10-16T03:37:36.055Z,999.9
2016-10-16T03:37:56.640Z,999.9
2016-10-16T03:38:17.229Z,999.9
2016-10-16T03:38:37.810Z,999.9
2016-10-16T03:38:58.416Z,999.9
2016-10-16T03:39:19.013Z,999.9
2016-10-16T03:39:39.596Z,999.9
2016-10-16T03:40:00.197Z,999.9
2016-10-16T03:40:20.767Z,999.9
2016-10-16T03:40:41.353Z,999.9
2016-10-16T03:41:01.947Z,999.9
2016-10-16T03:41:22.539Z,999.9
2016-10-16T03:41:43.100Z,999.9
2016-10-16T03:42:03.689Z,999.9
2016-10-16T03:42:24.288Z,999.9
2016-10-16T03:42:44.860Z,999.9
2016-10-16T03:43:05.437Z,999.9
2016-10-16T03:43:26.028Z,999.9
2016-10-16T03:43:46.620Z,999.9
2016-10-16T03:44:07.220Z,999.9
2016-10-16T03:44:27.827Z,999.9
2016-10-16T03:44:48.395Z,999.9
2016-10-16T03:45:09.009Z,999.9
2016-10-16T03:45:29.589Z,999.9
2016-10-16T03:45:50.176Z,999.9
2016-10-16T03:46:10.766Z,999.9
2016-10-16T03:46:31.347Z,999.9
2016-10-16T03:46:51.962Z,999.9
2016-10-16T03:47:12.532Z,999.9
2016-10-16T03:47:33.127Z,999.9
2016-10-16T03:47:53.713Z,999.9
2016-10-16T03:48:14.299Z,999.9
2016-10-16T03:48:34.882Z,999.9
2016-10-16T03:48:55.458Z,999.9
2016-10-16T03:49:16.051Z,999.9
2016-10-16T03:49:36.632Z,999.9
2016-10-16T03:49:57.683Z,999.9
2016-10-16T03:50:18.267Z,999.9
2016-10-16T03:50:38.843Z,999.9
2016-10-16T03:50:59.437Z,999.9
2016-10-16T03:51:20.015Z,999.9
2016-10-16T03:51:40.594Z,999.9
2016-10-16T03:52:01.168Z,999.9
2016-10-16T03:52:21.734Z,999.9
2016-10-16T03:52:42.320Z,999.9
2016-10-16T03:53:02.905Z,999.8
2016-10-16T03:53:23.493Z,999.9
2016-10-16T03:53:44.065Z,999.9
2016-10-16T03:54:04.640Z,999.9
2016-10-16T03:54:25.210Z,999.9
2016-10-16T03:54:45.783Z,999.9
2016-10-16T03:55:06.368Z,999.9
2016-10-16T03:55:26.966Z,999.9
2016-10-16T03:55:47.553Z,999.9
2016-10-16T03:56:08.122Z,999.9
2016-10-16T03:56:28.698Z,999.9
2016-10-16T03:56:49.288Z,999.9
2016-10-16T03:57:09.864Z,999.9
2016-10-16T03:57:30.455Z,999.9
2016-10-16T03:57:51.042Z,999.9
2016-10-16T03:58:11.629Z,999.9
2016-10-16T03:58:32.234Z,999.9
2016-10-16T03:58:52.811Z,999.9
2016-10-16T03:59:13.416Z,999.9
2016-10-16T03:59:33.994Z,999.9
2016-10-16T03:59:54.572Z,999.9
2016-10-16T04:00:15.160Z,999.9
2016-10-16T04:00:35.767Z,999.9
2016-10-16T04:00:56.356Z,999.9
2016-10-16T04:01:16.937Z,999.9
2016-10-16T04:01:37.497Z,999.9
2016-10-16T04:01:58.074Z,999.9
2016-10-16T04:02:18.658Z,999.9
2016-10-16T04:02:39.248Z,999.9
2016-10-16T04:02:59.826Z,999.9
2016-10-16T04:03:20.406Z,999.9
2016-10-16T04:03:40.985Z,999.9
2016-10-16T04:04:01.569Z,999.9
2016-10-16T04:04:22.161Z,999.9
2016-10-16T04:04:42.748Z,999.9
2016-10-16T04:05:03.335Z,1000
2016-10-16T04:05:23.915Z,1000
2016-10-16T04:05:44.510Z,1000
2016-10-16T04:06:05.106Z,1000
2016-10-16T04:06:25.709Z,1000
2016-10-16T04:06:46.332Z,1000
2016-10-16T04:07:06.901Z,1000
2016-10-16T04:07:27.486Z,1000
2016-10-16T04:07:48.079Z,1000
2016-10-16T04:08:08.660Z,1000
2016-10-16T04:08:29.244Z,1000
2016-10-16T04:08:49.834Z,1000
2016-10-16T04:09:10.410Z,1000
2016-10-16T04:09:31.009Z,1000
2016-10-16T04:09:51.599Z,1000
2016-10-16T04:10:12.193Z,1000
2016-10-16T04:10:32.761Z,1000
2016-10-16T04:10:53.340Z,1000
2016-10-16T04:11:13.918Z,1000
2016-10-16T04:11:34.508Z,1000
2016-10-16T04:11:55.084Z,1000
2016-10-16T04:12:15.657Z,1000
2016-10-16T04:12:36.237Z,1000
2016-10-16T04:12:56.826Z,1000.1
2016-10-16T04:13:17.407Z,1000
2016-10-16T04:13:38.019Z,1000
2016-10-16T04:13:58.590Z,1000
2016-10-16T04:14:19.164Z,1000
2016-10-16T04:14:39.768Z,1000
2016-10-16T04:15:00.355Z,1000
2016-10-16T04:15:20.937Z,1000
2016-10-16T04:15:41.513Z,1000
2016-10-16T04:16:02.083Z,1000
2016-10-16T04:16:22.678Z,1000
2016-10-16T04:16:43.262Z,1000
2016-10-16T04:17:03.852Z,1000
2016-10-16T04:17:24.446Z,1000
2016-10-16T04:17:45.027Z,1000
2016-10-16T04:18:05.617Z,1000
2016-10-16T04:18:26.210Z,1000
2016-10-16T04:18:46.906Z,1000
2016-10-16T04:19:07.478Z,1000
2016-10-16T04:19:28.053Z,1000
2016-10-16T04:19:48.654Z,1000
2016-10-16T04:20:09.230Z,1000
2016-10-16T04:20:29.836Z,1000
2016-10-16T04:20:50.418Z,1000
2016-10-16T04:21:10.993Z,1000
2016-10-16T04:21:31.567Z,1000
2016-10-16T04:21:52.142Z,1000
2016-10-16T04:22:12.734Z,1000
2016-10-16T04:22:33.337Z,1000
2016-10-16T04:22:53.931Z,1000
2016-10-16T04:23:14.507Z,1000
2016-10-16T04:23:35.096Z,1000
2016-10-16T04:23:55.686Z,1000
2016-10-16T04:24:16.252Z,1000
2016-10-16T04:24:36.824Z,1000
2016-10-16T04:24:57.396Z,1000
2016-10-16T04:25:17.981Z,1000
2016-10-16T04:25:38.565Z,1000
2016-10-16T04:25:59.148Z,999.9
2016-10-16T04:26:19.729Z,1000
2016-10-16T04:26:40.297Z,1000
2016-10-16T04:27:00.907Z,1000
2016-10-16T04:27:21.482Z,1000
2016-10-16T04:27:42.097Z,1000